sensor_id;sensor_type;location;lat;lon;timestamp;P1;durP1;ratioP1;P2;durP2;ratioP2
22201;SDS011;11266;51.522;6.302;2022-11-20T00:00:34;11.05;;;6.57;;
22201;SDS011;11266;51.522;6.302;2022-11-20T00:01:21;10.25;;;7.13;;
22201;SDS011;11266;51.522;6.302;2022-11-20T00:02:07;10.05;;;6.68;;
22201;SDS011;11266;51.522;6.302;2022-11-20T00:02:53;9.77;;;6.38;;
22201;SDS011;11266;51.522;6.302;2022-11-20T00:03:42;9.48;;;6.55;;
22201;SDS011;11266;51.522;6.302;2022-11-20T00:04:28;9.70;;;6.25;;
22201;SDS011;11266;51.522;6.302;2022-11-20T00:05:14;9.80;;;5.80;;
22201;SDS011;11266;51.522;6.302;2022-11-20T00:06:04;9.43;;;6.22;;
22201;SDS011;11266;51.522;6.302;2022-11-20T00:06:50;10.27;;;6.55;;
22201;SDS011;11266;51.522;6.302;2022-11-20T00:07:36;12.88;;;7.05;;
22201;SDS011;11266;51.522;6.302;2022-11-20T00:08:22;13.23;;;8.05;;
22201;SDS011;11266;51.522;6.302;2022-11-20T00:09:09;10.65;;;6.70;;
22201;SDS011;11266;51.522;6.302;2022-11-20T00:09:55;12.75;;;7.63;;
22201;SDS011;11266;51.522;6.302;2022-11-20T00:10:41;10.25;;;6.97;;
22201;SDS011;11266;51.522;6.302;2022-11-20T00:11:29;10.43;;;6.57;;
22201;SDS011;11266;51.522;6.302;2022-11-20T00:12:16;10.70;;;6.20;;
22201;SDS011;11266;51.522;6.302;2022-11-20T00:13:02;9.60;;;6.85;;
22201;SDS011;11266;51.522;6.302;2022-11-20T00:13:49;10.75;;;7.00;;
22201;SDS011;11266;51.522;6.302;2022-11-20T00:14:35;10.90;;;6.97;;
22201;SDS011;11266;51.522;6.302;2022-11-20T00:15:21;11.32;;;7.32;;
22201;SDS011;11266;51.522;6.302;2022-11-20T00:16:09;11.35;;;7.53;;
22201;SDS011;11266;51.522;6.302;2022-11-20T00:16:55;10.65;;;6.88;;
22201;SDS011;11266;51.522;6.302;2022-11-20T00:17:41;10.65;;;7.35;;
22201;SDS011;11266;51.522;6.302;2022-11-20T00:18:27;12.10;;;7.43;;
22201;SDS011;11266;51.522;6.302;2022-11-20T00:19:13;11.80;;;7.30;;
22201;SDS011;11266;51.522;6.302;2022-11-20T00:19:59;11.88;;;7.43;;
22201;SDS011;11266;51.522;6.302;2022-11-20T00:20:48;13.27;;;7.35;;
22201;SDS011;11266;51.522;6.302;2022-11-20T00:21:34;12.07;;;7.43;;
22201;SDS011;11266;51.522;6.302;2022-11-20T00:22:19;12.02;;;7.53;;
22201;SDS011;11266;51.522;6.302;2022-11-20T00:23:06;11.70;;;7.85;;
22201;SDS011;11266;51.522;6.302;2022-11-20T00:23:53;11.82;;;7.75;;
22201;SDS011;11266;51.522;6.302;2022-11-20T00:24:39;10.38;;;6.57;;
22201;SDS011;11266;51.522;6.302;2022-11-20T00:25:25;10.68;;;6.72;;
22201;SDS011;11266;51.522;6.302;2022-11-20T00:26:15;11.10;;;6.82;;
22201;SDS011;11266;51.522;6.302;2022-11-20T00:27:01;10.85;;;6.97;;
22201;SDS011;11266;51.522;6.302;2022-11-20T00:27:47;11.40;;;7.18;;
22201;SDS011;11266;51.522;6.302;2022-11-20T00:28:33;9.07;;;6.65;;
22201;SDS011;11266;51.522;6.302;2022-11-20T00:29:19;13.80;;;7.88;;
22201;SDS011;11266;51.522;6.302;2022-11-20T00:30:05;12.23;;;7.50;;
22201;SDS011;11266;51.522;6.302;2022-11-20T00:30:54;10.38;;;7.07;;
22201;SDS011;11266;51.522;6.302;2022-11-20T00:31:45;12.57;;;7.65;;
22201;SDS011;11266;51.522;6.302;2022-11-20T00:32:31;12.40;;;7.40;;
22201;SDS011;11266;51.522;6.302;2022-11-20T00:33:17;13.35;;;8.35;;
22201;SDS011;11266;51.522;6.302;2022-11-20T00:34:03;13.45;;;7.53;;
22201;SDS011;11266;51.522;6.302;2022-11-20T00:34:49;11.48;;;7.45;;
22201;SDS011;11266;51.522;6.302;2022-11-20T00:35:35;12.55;;;7.70;;
22201;SDS011;11266;51.522;6.302;2022-11-20T00:36:22;10.43;;;6.93;;
22201;SDS011;11266;51.522;6.302;2022-11-20T00:37:08;11.13;;;7.25;;
22201;SDS011;11266;51.522;6.302;2022-11-20T00:37:54;11.73;;;7.40;;
22201;SDS011;11266;51.522;6.302;2022-11-20T00:38:41;15.10;;;7.97;;
22201;SDS011;11266;51.522;6.302;2022-11-20T00:39:29;11.80;;;7.50;;
22201;SDS011;11266;51.522;6.302;2022-11-20T00:40:15;10.52;;;6.93;;
22201;SDS011;11266;51.522;6.302;2022-11-20T00:41:02;12.43;;;7.35;;
22201;SDS011;11266;51.522;6.302;2022-11-20T00:41:49;12.18;;;7.82;;
22201;SDS011;11266;51.522;6.302;2022-11-20T00:42:35;13.13;;;8.13;;
22201;SDS011;11266;51.522;6.302;2022-11-20T00:43:21;15.70;;;8.27;;
22201;SDS011;11266;51.522;6.302;2022-11-20T00:44:07;12.30;;;7.80;;
22201;SDS011;11266;51.522;6.302;2022-11-20T00:44:55;11.77;;;7.78;;
22201;SDS011;11266;51.522;6.302;2022-11-20T00:45:41;12.45;;;8.45;;
22201;SDS011;11266;51.522;6.302;2022-11-20T00:46:27;11.43;;;7.55;;
22201;SDS011;11266;51.522;6.302;2022-11-20T00:47:13;11.55;;;7.70;;
22201;SDS011;11266;51.522;6.302;2022-11-20T00:47:59;10.43;;;7.07;;
22201;SDS011;11266;51.522;6.302;2022-11-20T00:48:46;12.05;;;7.82;;
22201;SDS011;11266;51.522;6.302;2022-11-20T00:49:32;15.18;;;8.15;;
22201;SDS011;11266;51.522;6.302;2022-11-20T00:50:18;11.98;;;7.13;;
22201;SDS011;11266;51.522;6.302;2022-11-20T00:51:04;11.40;;;7.70;;
22201;SDS011;11266;51.522;6.302;2022-11-20T00:51:50;11.45;;;7.47;;
22201;SDS011;11266;51.522;6.302;2022-11-20T00:52:36;11.65;;;7.57;;
22201;SDS011;11266;51.522;6.302;2022-11-20T00:53:22;12.43;;;7.82;;
22201;SDS011;11266;51.522;6.302;2022-11-20T00:54:08;13.00;;;7.78;;
22201;SDS011;11266;51.522;6.302;2022-11-20T00:54:55;13.88;;;8.00;;
22201;SDS011;11266;51.522;6.302;2022-11-20T00:55:41;10.93;;;7.55;;
22201;SDS011;11266;51.522;6.302;2022-11-20T00:56:27;11.52;;;7.57;;
22201;SDS011;11266;51.522;6.302;2022-11-20T00:57:13;10.60;;;7.05;;
22201;SDS011;11266;51.522;6.302;2022-11-20T00:58:00;12.30;;;7.53;;
22201;SDS011;11266;51.522;6.302;2022-11-20T00:59:05;11.70;;;7.53;;
22201;SDS011;11266;51.522;6.302;2022-11-20T00:59:51;11.70;;;7.28;;
22201;SDS011;11266;51.522;6.302;2022-11-20T01:00:37;12.82;;;8.30;;
22201;SDS011;11266;51.522;6.302;2022-11-20T01:01:24;10.73;;;6.78;;
22201;SDS011;11266;51.522;6.302;2022-11-20T01:02:14;11.18;;;7.15;;
22201;SDS011;11266;51.522;6.302;2022-11-20T01:03:01;12.93;;;7.60;;
22201;SDS011;11266;51.522;6.302;2022-11-20T01:03:48;9.63;;;6.82;;
22201;SDS011;11266;51.522;6.302;2022-11-20T01:04:34;11.32;;;7.22;;
22201;SDS011;11266;51.522;6.302;2022-11-20T01:05:20;11.77;;;7.60;;
22201;SDS011;11266;51.522;6.302;2022-11-20T01:06:09;12.40;;;7.80;;
22201;SDS011;11266;51.522;6.302;2022-11-20T01:06:55;12.48;;;7.88;;
22201;SDS011;11266;51.522;6.302;2022-11-20T01:07:41;13.50;;;8.30;;
22201;SDS011;11266;51.522;6.302;2022-11-20T01:08:30;14.50;;;8.38;;
22201;SDS011;11266;51.522;6.302;2022-11-20T01:09:17;11.68;;;7.63;;
22201;SDS011;11266;51.522;6.302;2022-11-20T01:10:03;12.15;;;8.00;;
22201;SDS011;11266;51.522;6.302;2022-11-20T01:10:49;13.18;;;8.10;;
22201;SDS011;11266;51.522;6.302;2022-11-20T01:11:36;12.13;;;8.30;;
22201;SDS011;11266;51.522;6.302;2022-11-20T01:12:22;14.43;;;9.45;;
22201;SDS011;11266;51.522;6.302;2022-11-20T01:13:08;16.05;;;10.38;;
22201;SDS011;11266;51.522;6.302;2022-11-20T01:14:14;13.82;;;8.77;;
22201;SDS011;11266;51.522;6.302;2022-11-20T01:15:00;13.90;;;8.93;;
22201;SDS011;11266;51.522;6.302;2022-11-20T01:15:46;12.70;;;8.20;;
22201;SDS011;11266;51.522;6.302;2022-11-20T01:16:33;13.77;;;9.00;;
22201;SDS011;11266;51.522;6.302;2022-11-20T01:17:21;13.70;;;8.63;;
22201;SDS011;11266;51.522;6.302;2022-11-20T01:18:07;13.30;;;9.10;;
22201;SDS011;11266;51.522;6.302;2022-11-20T01:18:54;14.25;;;8.98;;
22201;SDS011;11266;51.522;6.302;2022-11-20T01:19:40;13.70;;;9.40;;
22201;SDS011;11266;51.522;6.302;2022-11-20T01:20:26;14.48;;;9.55;;
22201;SDS011;11266;51.522;6.302;2022-11-20T01:21:30;14.25;;;8.82;;
22201;SDS011;11266;51.522;6.302;2022-11-20T01:22:17;13.55;;;8.52;;
22201;SDS011;11266;51.522;6.302;2022-11-20T01:23:03;13.98;;;8.93;;
22201;SDS011;11266;51.522;6.302;2022-11-20T01:23:49;14.77;;;9.07;;
22201;SDS011;11266;51.522;6.302;2022-11-20T01:24:35;13.10;;;9.15;;
22201;SDS011;11266;51.522;6.302;2022-11-20T01:25:21;13.15;;;9.00;;
22201;SDS011;11266;51.522;6.302;2022-11-20T01:26:10;13.23;;;8.75;;
22201;SDS011;11266;51.522;6.302;2022-11-20T01:26:56;13.73;;;9.18;;
22201;SDS011;11266;51.522;6.302;2022-11-20T01:27:42;13.80;;;8.85;;
22201;SDS011;11266;51.522;6.302;2022-11-20T01:28:31;14.95;;;9.75;;
22201;SDS011;11266;51.522;6.302;2022-11-20T01:29:21;13.52;;;8.73;;
22201;SDS011;11266;51.522;6.302;2022-11-20T01:30:07;13.07;;;9.20;;
22201;SDS011;11266;51.522;6.302;2022-11-20T01:30:53;14.05;;;9.63;;
22201;SDS011;11266;51.522;6.302;2022-11-20T01:31:39;14.10;;;9.30;;
22201;SDS011;11266;51.522;6.302;2022-11-20T01:32:25;14.30;;;9.52;;
22201;SDS011;11266;51.522;6.302;2022-11-20T01:33:11;14.63;;;9.63;;
22201;SDS011;11266;51.522;6.302;2022-11-20T01:33:58;15.20;;;10.10;;
22201;SDS011;11266;51.522;6.302;2022-11-20T01:34:44;19.33;;;10.68;;
22201;SDS011;11266;51.522;6.302;2022-11-20T01:35:30;15.48;;;10.32;;
22201;SDS011;11266;51.522;6.302;2022-11-20T01:36:17;15.35;;;10.25;;
22201;SDS011;11266;51.522;6.302;2022-11-20T01:37:03;15.55;;;10.25;;
22201;SDS011;11266;51.522;6.302;2022-11-20T01:37:49;15.60;;;9.98;;
22201;SDS011;11266;51.522;6.302;2022-11-20T01:38:36;17.08;;;10.10;;
22201;SDS011;11266;51.522;6.302;2022-11-20T01:39:23;16.00;;;10.15;;
22201;SDS011;11266;51.522;6.302;2022-11-20T01:40:10;17.40;;;10.38;;
22201;SDS011;11266;51.522;6.302;2022-11-20T01:40:56;16.17;;;10.50;;
22201;SDS011;11266;51.522;6.302;2022-11-20T01:41:42;17.45;;;10.85;;
22201;SDS011;11266;51.522;6.302;2022-11-20T01:42:47;16.58;;;9.98;;
22201;SDS011;11266;51.522;6.302;2022-11-20T01:43:56;16.92;;;10.07;;
22201;SDS011;11266;51.522;6.302;2022-11-20T01:46:33;22.08;;;11.27;;
22201;SDS011;11266;51.522;6.302;2022-11-20T01:48:10;19.10;;;10.82;;
22201;SDS011;11266;51.522;6.302;2022-11-20T01:49:45;17.63;;;9.85;;
22201;SDS011;11266;51.522;6.302;2022-11-20T01:50:32;17.30;;;9.88;;
22201;SDS011;11266;51.522;6.302;2022-11-20T01:51:20;17.02;;;10.27;;
22201;SDS011;11266;51.522;6.302;2022-11-20T01:52:11;18.38;;;10.52;;
22201;SDS011;11266;51.522;6.302;2022-11-20T01:53:00;17.45;;;10.40;;
22201;SDS011;11266;51.522;6.302;2022-11-20T01:53:47;18.55;;;9.65;;
22201;SDS011;11266;51.522;6.302;2022-11-20T01:54:35;17.95;;;9.77;;
22201;SDS011;11266;51.522;6.302;2022-11-20T01:55:25;16.15;;;9.93;;
22201;SDS011;11266;51.522;6.302;2022-11-20T01:56:12;18.40;;;11.15;;
22201;SDS011;11266;51.522;6.302;2022-11-20T01:56:59;16.98;;;10.07;;
22201;SDS011;11266;51.522;6.302;2022-11-20T01:57:46;15.90;;;10.25;;
22201;SDS011;11266;51.522;6.302;2022-11-20T01:58:35;17.63;;;10.10;;
22201;SDS011;11266;51.522;6.302;2022-11-20T01:59:21;15.15;;;10.40;;
22201;SDS011;11266;51.522;6.302;2022-11-20T02:00:10;17.77;;;10.40;;
22201;SDS011;11266;51.522;6.302;2022-11-20T02:00:56;13.95;;;9.35;;
22201;SDS011;11266;51.522;6.302;2022-11-20T02:01:43;16.00;;;9.32;;
22201;SDS011;11266;51.522;6.302;2022-11-20T02:02:29;16.67;;;9.40;;
22201;SDS011;11266;51.522;6.302;2022-11-20T02:03:15;15.57;;;9.90;;
22201;SDS011;11266;51.522;6.302;2022-11-20T02:04:02;14.60;;;9.90;;
22201;SDS011;11266;51.522;6.302;2022-11-20T02:04:49;15.70;;;9.38;;
22201;SDS011;11266;51.522;6.302;2022-11-20T02:05:53;14.77;;;9.40;;
22201;SDS011;11266;51.522;6.302;2022-11-20T02:06:51;14.40;;;8.80;;
22201;SDS011;11266;51.522;6.302;2022-11-20T02:07:41;14.07;;;9.00;;
22201;SDS011;11266;51.522;6.302;2022-11-20T02:08:27;14.07;;;8.98;;
22201;SDS011;11266;51.522;6.302;2022-11-20T02:09:13;18.25;;;10.30;;
22201;SDS011;11266;51.522;6.302;2022-11-20T02:09:59;15.23;;;9.27;;
22201;SDS011;11266;51.522;6.302;2022-11-20T02:10:53;13.50;;;9.32;;
22201;SDS011;11266;51.522;6.302;2022-11-20T02:11:39;13.75;;;8.50;;
22201;SDS011;11266;51.522;6.302;2022-11-20T02:12:25;14.90;;;9.55;;
22201;SDS011;11266;51.522;6.302;2022-11-20T02:13:30;15.25;;;9.95;;
22201;SDS011;11266;51.522;6.302;2022-11-20T02:14:28;14.68;;;9.18;;
22201;SDS011;11266;51.522;6.302;2022-11-20T02:15:14;15.98;;;9.70;;
22201;SDS011;11266;51.522;6.302;2022-11-20T02:16:03;13.77;;;8.48;;
22201;SDS011;11266;51.522;6.302;2022-11-20T02:16:49;15.23;;;8.82;;
22201;SDS011;11266;51.522;6.302;2022-11-20T02:17:35;13.30;;;8.07;;
22201;SDS011;11266;51.522;6.302;2022-11-20T02:18:21;13.95;;;8.32;;
22201;SDS011;11266;51.522;6.302;2022-11-20T02:19:09;15.88;;;8.88;;
22201;SDS011;11266;51.522;6.302;2022-11-20T02:19:56;11.93;;;8.00;;
22201;SDS011;11266;51.522;6.302;2022-11-20T02:20:43;14.77;;;8.68;;
22201;SDS011;11266;51.522;6.302;2022-11-20T02:22:24;12.98;;;7.72;;
22201;SDS011;11266;51.522;6.302;2022-11-20T02:23:12;14.63;;;8.88;;
22201;SDS011;11266;51.522;6.302;2022-11-20T02:24:48;13.90;;;8.65;;
22201;SDS011;11266;51.522;6.302;2022-11-20T02:25:35;12.25;;;8.10;;
22201;SDS011;11266;51.522;6.302;2022-11-20T02:26:22;17.63;;;8.57;;
22201;SDS011;11266;51.522;6.302;2022-11-20T02:27:10;16.08;;;8.65;;
22201;SDS011;11266;51.522;6.302;2022-11-20T02:27:56;14.10;;;7.75;;
22201;SDS011;11266;51.522;6.302;2022-11-20T02:28:42;13.25;;;8.32;;
22201;SDS011;11266;51.522;6.302;2022-11-20T02:29:39;13.48;;;8.75;;
22201;SDS011;11266;51.522;6.302;2022-11-20T02:30:26;11.98;;;7.63;;
22201;SDS011;11266;51.522;6.302;2022-11-20T02:31:12;11.88;;;7.97;;
22201;SDS011;11266;51.522;6.302;2022-11-20T02:31:58;14.50;;;8.93;;
22201;SDS011;11266;51.522;6.302;2022-11-20T02:32:46;11.80;;;7.88;;
22201;SDS011;11266;51.522;6.302;2022-11-20T02:33:34;13.10;;;8.35;;
22201;SDS011;11266;51.522;6.302;2022-11-20T02:34:20;12.82;;;8.43;;
22201;SDS011;11266;51.522;6.302;2022-11-20T02:35:55;12.15;;;8.43;;
22201;SDS011;11266;51.522;6.302;2022-11-20T02:36:41;12.30;;;8.05;;
22201;SDS011;11266;51.522;6.302;2022-11-20T02:37:30;13.02;;;8.40;;
22201;SDS011;11266;51.522;6.302;2022-11-20T02:38:18;13.43;;;8.52;;
22201;SDS011;11266;51.522;6.302;2022-11-20T02:39:04;12.40;;;8.10;;
22201;SDS011;11266;51.522;6.302;2022-11-20T02:39:51;12.75;;;7.75;;
22201;SDS011;11266;51.522;6.302;2022-11-20T02:40:37;12.02;;;8.13;;
22201;SDS011;11266;51.522;6.302;2022-11-20T02:41:30;12.55;;;8.27;;
22201;SDS011;11266;51.522;6.302;2022-11-20T02:42:16;11.38;;;7.80;;
22201;SDS011;11266;51.522;6.302;2022-11-20T02:43:02;10.65;;;7.47;;
22201;SDS011;11266;51.522;6.302;2022-11-20T02:43:48;12.20;;;7.80;;
22201;SDS011;11266;51.522;6.302;2022-11-20T02:44:34;13.18;;;8.75;;
22201;SDS011;11266;51.522;6.302;2022-11-20T02:45:20;12.88;;;8.05;;
22201;SDS011;11266;51.522;6.302;2022-11-20T02:46:09;13.63;;;7.97;;
22201;SDS011;11266;51.522;6.302;2022-11-20T02:46:56;15.65;;;7.93;;
22201;SDS011;11266;51.522;6.302;2022-11-20T02:47:43;11.52;;;7.47;;
22201;SDS011;11266;51.522;6.302;2022-11-20T02:48:29;11.98;;;7.38;;
22201;SDS011;11266;51.522;6.302;2022-11-20T02:49:15;11.77;;;8.02;;
22201;SDS011;11266;51.522;6.302;2022-11-20T02:50:02;12.75;;;8.27;;
22201;SDS011;11266;51.522;6.302;2022-11-20T02:50:48;13.68;;;8.55;;
22201;SDS011;11266;51.522;6.302;2022-11-20T02:51:34;11.25;;;7.63;;
22201;SDS011;11266;51.522;6.302;2022-11-20T02:52:20;12.35;;;7.32;;
22201;SDS011;11266;51.522;6.302;2022-11-20T02:53:06;12.23;;;8.18;;
22201;SDS011;11266;51.522;6.302;2022-11-20T02:53:52;11.38;;;7.25;;
22201;SDS011;11266;51.522;6.302;2022-11-20T02:54:38;11.93;;;7.65;;
22201;SDS011;11266;51.522;6.302;2022-11-20T02:55:24;12.05;;;8.27;;
22201;SDS011;11266;51.522;6.302;2022-11-20T02:56:10;11.32;;;7.75;;
22201;SDS011;11266;51.522;6.302;2022-11-20T02:56:56;12.18;;;7.65;;
22201;SDS011;11266;51.522;6.302;2022-11-20T02:57:42;10.50;;;7.65;;
22201;SDS011;11266;51.522;6.302;2022-11-20T02:58:30;13.05;;;7.65;;
22201;SDS011;11266;51.522;6.302;2022-11-20T02:59:17;13.52;;;7.70;;
22201;SDS011;11266;51.522;6.302;2022-11-20T03:00:03;12.60;;;8.00;;
22201;SDS011;11266;51.522;6.302;2022-11-20T03:00:49;11.82;;;7.95;;
22201;SDS011;11266;51.522;6.302;2022-11-20T03:01:35;13.15;;;8.23;;
22201;SDS011;11266;51.522;6.302;2022-11-20T03:02:21;12.18;;;8.02;;
22201;SDS011;11266;51.522;6.302;2022-11-20T03:03:07;12.25;;;7.80;;
22201;SDS011;11266;51.522;6.302;2022-11-20T03:03:53;11.95;;;7.43;;
22201;SDS011;11266;51.522;6.302;2022-11-20T03:04:39;11.73;;;7.22;;
22201;SDS011;11266;51.522;6.302;2022-11-20T03:05:25;10.30;;;7.07;;
22201;SDS011;11266;51.522;6.302;2022-11-20T03:06:11;11.48;;;7.75;;
22201;SDS011;11266;51.522;6.302;2022-11-20T03:06:57;10.88;;;6.97;;
22201;SDS011;11266;51.522;6.302;2022-11-20T03:07:43;12.43;;;7.60;;
22201;SDS011;11266;51.522;6.302;2022-11-20T03:08:29;12.48;;;8.05;;
22201;SDS011;11266;51.522;6.302;2022-11-20T03:09:15;11.25;;;7.25;;
22201;SDS011;11266;51.522;6.302;2022-11-20T03:10:02;11.35;;;7.15;;
22201;SDS011;11266;51.522;6.302;2022-11-20T03:10:48;12.25;;;7.65;;
22201;SDS011;11266;51.522;6.302;2022-11-20T03:11:34;11.82;;;7.28;;
22201;SDS011;11266;51.522;6.302;2022-11-20T03:12:20;11.82;;;7.35;;
22201;SDS011;11266;51.522;6.302;2022-11-20T03:13:06;10.40;;;6.90;;
22201;SDS011;11266;51.522;6.302;2022-11-20T03:13:52;11.05;;;7.22;;
22201;SDS011;11266;51.522;6.302;2022-11-20T03:14:38;13.43;;;7.75;;
22201;SDS011;11266;51.522;6.302;2022-11-20T03:15:24;11.55;;;8.05;;
22201;SDS011;11266;51.522;6.302;2022-11-20T03:16:11;11.48;;;6.93;;
22201;SDS011;11266;51.522;6.302;2022-11-20T03:16:57;10.50;;;7.40;;
22201;SDS011;11266;51.522;6.302;2022-11-20T03:17:43;12.40;;;8.20;;
22201;SDS011;11266;51.522;6.302;2022-11-20T03:18:29;10.40;;;7.18;;
22201;SDS011;11266;51.522;6.302;2022-11-20T03:19:15;10.57;;;7.40;;
22201;SDS011;11266;51.522;6.302;2022-11-20T03:20:01;11.90;;;8.02;;
22201;SDS011;11266;51.522;6.302;2022-11-20T03:20:47;11.63;;;7.63;;
22201;SDS011;11266;51.522;6.302;2022-11-20T03:21:34;11.80;;;7.72;;
22201;SDS011;11266;51.522;6.302;2022-11-20T03:22:20;12.15;;;8.05;;
22201;SDS011;11266;51.522;6.302;2022-11-20T03:23:06;11.23;;;7.35;;
22201;SDS011;11266;51.522;6.302;2022-11-20T03:23:54;11.98;;;7.80;;
22201;SDS011;11266;51.522;6.302;2022-11-20T03:24:40;9.90;;;6.82;;
22201;SDS011;11266;51.522;6.302;2022-11-20T03:25:26;13.43;;;7.65;;
22201;SDS011;11266;51.522;6.302;2022-11-20T03:26:17;11.02;;;7.55;;
22201;SDS011;11266;51.522;6.302;2022-11-20T03:27:03;11.57;;;7.63;;
22201;SDS011;11266;51.522;6.302;2022-11-20T03:27:49;12.20;;;7.55;;
22201;SDS011;11266;51.522;6.302;2022-11-20T03:28:35;11.70;;;7.90;;
22201;SDS011;11266;51.522;6.302;2022-11-20T03:29:21;12.55;;;7.88;;
22201;SDS011;11266;51.522;6.302;2022-11-20T03:30:10;11.13;;;7.25;;
22201;SDS011;11266;51.522;6.302;2022-11-20T03:30:56;11.27;;;7.25;;
22201;SDS011;11266;51.522;6.302;2022-11-20T03:31:42;11.23;;;7.15;;
22201;SDS011;11266;51.522;6.302;2022-11-20T03:32:28;13.48;;;7.40;;
22201;SDS011;11266;51.522;6.302;2022-11-20T03:33:14;11.52;;;7.40;;
22201;SDS011;11266;51.522;6.302;2022-11-20T03:34:01;12.23;;;8.27;;
22201;SDS011;11266;51.522;6.302;2022-11-20T03:34:47;11.23;;;7.53;;
22201;SDS011;11266;51.522;6.302;2022-11-20T03:35:33;11.63;;;7.82;;
22201;SDS011;11266;51.522;6.302;2022-11-20T03:36:20;13.23;;;7.75;;
22201;SDS011;11266;51.522;6.302;2022-11-20T03:37:06;11.63;;;7.60;;
22201;SDS011;11266;51.522;6.302;2022-11-20T03:37:52;12.68;;;8.27;;
22201;SDS011;11266;51.522;6.302;2022-11-20T03:38:38;10.02;;;7.10;;
22201;SDS011;11266;51.522;6.302;2022-11-20T03:39:24;13.43;;;8.07;;
22201;SDS011;11266;51.522;6.302;2022-11-20T03:40:11;12.07;;;7.90;;
22201;SDS011;11266;51.522;6.302;2022-11-20T03:40:58;10.48;;;7.15;;
22201;SDS011;11266;51.522;6.302;2022-11-20T03:41:47;11.85;;;6.75;;
22201;SDS011;11266;51.522;6.302;2022-11-20T03:42:33;11.48;;;7.22;;
22201;SDS011;11266;51.522;6.302;2022-11-20T03:43:31;10.45;;;7.35;;
22201;SDS011;11266;51.522;6.302;2022-11-20T03:44:17;11.40;;;7.20;;
22201;SDS011;11266;51.522;6.302;2022-11-20T03:45:06;11.13;;;6.72;;
22201;SDS011;11266;51.522;6.302;2022-11-20T03:45:53;11.50;;;7.47;;
22201;SDS011;11266;51.522;6.302;2022-11-20T03:46:39;11.63;;;7.32;;
22201;SDS011;11266;51.522;6.302;2022-11-20T03:47:25;11.90;;;7.78;;
22201;SDS011;11266;51.522;6.302;2022-11-20T03:48:13;10.10;;;6.60;;
22201;SDS011;11266;51.522;6.302;2022-11-20T03:48:59;11.63;;;7.03;;
22201;SDS011;11266;51.522;6.302;2022-11-20T03:49:48;11.70;;;7.50;;
22201;SDS011;11266;51.522;6.302;2022-11-20T03:50:34;12.07;;;7.53;;
22201;SDS011;11266;51.522;6.302;2022-11-20T03:51:23;11.15;;;7.50;;
22201;SDS011;11266;51.522;6.302;2022-11-20T03:52:10;13.50;;;7.25;;
22201;SDS011;11266;51.522;6.302;2022-11-20T03:52:56;14.07;;;7.95;;
22201;SDS011;11266;51.522;6.302;2022-11-20T03:53:43;11.82;;;7.15;;
22201;SDS011;11266;51.522;6.302;2022-11-20T03:54:29;12.35;;;7.80;;
22201;SDS011;11266;51.522;6.302;2022-11-20T03:55:15;11.38;;;7.50;;
22201;SDS011;11266;51.522;6.302;2022-11-20T03:56:02;13.40;;;7.35;;
22201;SDS011;11266;51.522;6.302;2022-11-20T03:56:48;12.88;;;7.43;;
22201;SDS011;11266;51.522;6.302;2022-11-20T03:57:34;10.50;;;6.88;;
22201;SDS011;11266;51.522;6.302;2022-11-20T03:58:20;11.32;;;7.25;;
22201;SDS011;11266;51.522;6.302;2022-11-20T03:59:06;9.48;;;6.65;;
22201;SDS011;11266;51.522;6.302;2022-11-20T03:59:52;11.25;;;6.82;;
22201;SDS011;11266;51.522;6.302;2022-11-20T04:00:38;11.40;;;7.30;;
22201;SDS011;11266;51.522;6.302;2022-11-20T04:01:25;11.60;;;6.75;;
22201;SDS011;11266;51.522;6.302;2022-11-20T04:02:11;11.63;;;7.50;;
22201;SDS011;11266;51.522;6.302;2022-11-20T04:02:58;11.25;;;7.13;;
22201;SDS011;11266;51.522;6.302;2022-11-20T04:03:44;11.25;;;7.60;;
22201;SDS011;11266;51.522;6.302;2022-11-20T04:04:33;17.67;;;7.47;;
22201;SDS011;11266;51.522;6.302;2022-11-20T04:05:21;10.15;;;6.88;;
22201;SDS011;11266;51.522;6.302;2022-11-20T04:06:59;10.48;;;6.72;;
22201;SDS011;11266;51.522;6.302;2022-11-20T04:07:45;10.68;;;6.90;;
22201;SDS011;11266;51.522;6.302;2022-11-20T04:08:33;10.18;;;6.82;;
22201;SDS011;11266;51.522;6.302;2022-11-20T04:09:19;10.10;;;7.22;;
22201;SDS011;11266;51.522;6.302;2022-11-20T04:10:06;10.85;;;7.32;;
22201;SDS011;11266;51.522;6.302;2022-11-20T04:10:52;11.23;;;7.53;;
22201;SDS011;11266;51.522;6.302;2022-11-20T04:11:39;10.85;;;6.88;;
22201;SDS011;11266;51.522;6.302;2022-11-20T04:12:25;11.50;;;6.95;;
22201;SDS011;11266;51.522;6.302;2022-11-20T04:13:13;11.85;;;8.10;;
22201;SDS011;11266;51.522;6.302;2022-11-20T04:14:00;11.05;;;7.35;;
22201;SDS011;11266;51.522;6.302;2022-11-20T04:14:47;11.75;;;7.32;;
22201;SDS011;11266;51.522;6.302;2022-11-20T04:15:33;11.73;;;7.88;;
22201;SDS011;11266;51.522;6.302;2022-11-20T04:16:19;12.73;;;8.07;;
22201;SDS011;11266;51.522;6.302;2022-11-20T04:17:05;11.57;;;7.03;;
22201;SDS011;11266;51.522;6.302;2022-11-20T04:17:53;11.02;;;7.63;;
22201;SDS011;11266;51.522;6.302;2022-11-20T04:18:39;10.68;;;7.00;;
22201;SDS011;11266;51.522;6.302;2022-11-20T04:19:25;12.45;;;7.72;;
22201;SDS011;11266;51.522;6.302;2022-11-20T04:20:11;12.57;;;7.88;;
22201;SDS011;11266;51.522;6.302;2022-11-20T04:20:58;11.00;;;6.88;;
22201;SDS011;11266;51.522;6.302;2022-11-20T04:21:44;10.65;;;7.05;;
22201;SDS011;11266;51.522;6.302;2022-11-20T04:22:32;11.60;;;7.65;;
22201;SDS011;11266;51.522;6.302;2022-11-20T04:23:18;11.05;;;7.45;;
22201;SDS011;11266;51.522;6.302;2022-11-20T04:24:07;11.57;;;7.47;;
22201;SDS011;11266;51.522;6.302;2022-11-20T04:24:55;11.63;;;7.75;;
22201;SDS011;11266;51.522;6.302;2022-11-20T04:25:43;12.85;;;7.35;;
22201;SDS011;11266;51.522;6.302;2022-11-20T04:26:32;11.50;;;7.75;;
22201;SDS011;11266;51.522;6.302;2022-11-20T04:27:18;13.23;;;7.68;;
22201;SDS011;11266;51.522;6.302;2022-11-20T04:28:04;12.88;;;8.05;;
22201;SDS011;11266;51.522;6.302;2022-11-20T04:28:50;13.30;;;8.27;;
22201;SDS011;11266;51.522;6.302;2022-11-20T04:29:36;13.70;;;8.35;;
22201;SDS011;11266;51.522;6.302;2022-11-20T04:30:22;12.48;;;8.27;;
22201;SDS011;11266;51.522;6.302;2022-11-20T04:31:13;13.25;;;8.23;;
22201;SDS011;11266;51.522;6.302;2022-11-20T04:31:59;12.55;;;8.52;;
22201;SDS011;11266;51.522;6.302;2022-11-20T04:32:45;17.17;;;8.73;;
22201;SDS011;11266;51.522;6.302;2022-11-20T04:33:31;11.95;;;7.95;;
22201;SDS011;11266;51.522;6.302;2022-11-20T04:34:17;12.23;;;8.18;;
22201;SDS011;11266;51.522;6.302;2022-11-20T04:35:03;12.27;;;8.23;;
22201;SDS011;11266;51.522;6.302;2022-11-20T04:35:49;12.63;;;8.43;;
22201;SDS011;11266;51.522;6.302;2022-11-20T04:36:35;12.00;;;8.27;;
22201;SDS011;11266;51.522;6.302;2022-11-20T04:37:21;12.45;;;8.32;;
22201;SDS011;11266;51.522;6.302;2022-11-20T04:38:10;12.88;;;7.95;;
22201;SDS011;11266;51.522;6.302;2022-11-20T04:39:01;13.07;;;8.45;;
22201;SDS011;11266;51.522;6.302;2022-11-20T04:39:47;12.90;;;8.25;;
22201;SDS011;11266;51.522;6.302;2022-11-20T04:40:33;14.45;;;8.82;;
22201;SDS011;11266;51.522;6.302;2022-11-20T04:41:20;14.45;;;8.50;;
22201;SDS011;11266;51.522;6.302;2022-11-20T04:42:07;12.82;;;8.43;;
22201;SDS011;11266;51.522;6.302;2022-11-20T04:43:12;14.15;;;8.40;;
22201;SDS011;11266;51.522;6.302;2022-11-20T04:43:59;12.70;;;8.20;;
22201;SDS011;11266;51.522;6.302;2022-11-20T04:44:48;15.50;;;8.52;;
22201;SDS011;11266;51.522;6.302;2022-11-20T04:45:34;12.82;;;8.10;;
22201;SDS011;11266;51.522;6.302;2022-11-20T04:46:20;11.55;;;7.40;;
22201;SDS011;11266;51.522;6.302;2022-11-20T04:47:06;12.00;;;8.05;;